Time;durP1;ratioP1;P1;durP2;ratioP2;P2;SDS_P1;SDS_P2;PMS_P1;PMS_P2;Temp;Humidity;BMP_temperature;BMP_pressure;BME280_temperature;BME280_humidity;BME280_pressure;Samples;Min_cycle;Max_cycle;Signal;HPM_P1;HPM_P2
2021/03/03 00:00:05;;;;;;;6.90;4.80;;;;;;;5.97;100.00;97564.41;5014542;28;20286;-86
2021/03/03 00:02:31;;;;;;;7.43;5.17;;;;;;;5.99;100.00;97563.34;5014627;28;20676;-87
2021/03/03 00:04:58;;;;;;;5.70;4.87;;;;;;;5.91;100.00;97558.59;5014704;28;20278;-86
2021/03/03 00:07:26;;;;;;;8.90;5.63;;;;;;;5.98;100.00;97558.25;5014596;28;20203;-85
2021/03/03 00:09:53;;;;;;;6.33;5.23;;;;;;;5.89;100.00;97554.44;5014334;28;20199;-87
2021/03/03 00:12:20;;;;;;;6.40;4.23;;;;;;;5.86;100.00;97557.22;5014337;28;20195;-87
2021/03/03 00:14:48;;;;;;;7.83;5.17;;;;;;;5.94;100.00;97555.81;5014544;28;20211;-86
2021/03/03 00:17:14;;;;;;;7.77;5.17;;;;;;;5.87;100.00;97562.34;5014138;28;20208;-86
2021/03/03 00:19:41;;;;;;;5.60;4.47;;;;;;;5.81;100.00;97559.28;5014731;28;20664;-86
2021/03/03 00:22:08;;;;;;;8.43;5.60;;;;;;;5.78;100.00;97565.53;5014136;28;20204;-86
2021/03/03 00:24:35;;;;;;;7.67;5.50;;;;;;;5.76;100.00;97564.81;5013593;28;20208;-85
2021/03/03 00:27:02;;;;;;;7.07;5.17;;;;;;;5.58;100.00;97558.97;5013352;28;20203;-86
2021/03/03 00:29:29;;;;;;;7.43;5.63;;;;;;;5.52;100.00;97548.09;5013937;28;20688;-86
2021/03/03 00:31:56;;;;;;;5.63;5.13;;;;;;;5.55;100.00;97560.94;5013839;28;20250;-86
2021/03/03 00:34:23;;;;;;;6.73;5.00;;;;;;;5.59;100.00;97560.63;5013787;28;20203;-86
2021/03/03 00:36:50;;;;;;;6.83;5.03;;;;;;;5.51;100.00;97554.22;5013773;28;20223;-87
2021/03/03 00:39:17;;;;;;;4.70;4.23;;;;;;;5.51;100.00;97551.59;5013906;28;20199;-86
2021/03/03 00:41:44;;;;;;;6.40;5.10;;;;;;;5.46;100.00;97552.72;5014167;28;20203;-86
2021/03/03 00:44:10;;;;;;;7.10;5.70;;;;;;;5.46;100.00;97551.91;5013783;28;20597;-86
2021/03/03 00:46:37;;;;;;;6.63;5.10;;;;;;;5.47;100.00;97545.75;5013372;28;20227;-86
2021/03/03 00:49:05;;;;;;;7.30;5.13;;;;;;;5.39;100.00;97551.44;5013631;28;20206;-86
2021/03/03 00:51:32;;;;;;;7.60;5.13;;;;;;;5.46;100.00;97542.31;5013909;28;20688;-86
2021/03/03 00:53:59;;;;;;;6.60;5.00;;;;;;;5.56;100.00;97545.19;5013592;28;20192;-86
2021/03/03 00:56:25;;;;;;;5.57;4.60;;;;;;;5.40;100.00;97539.25;5013637;28;20317;-87
2021/03/03 00:58:54;;;;;;;7.57;4.73;;;;;;;5.36;100.00;97540.38;5013567;28;20202;-85
2021/03/03 01:01:20;;;;;;;7.10;5.50;;;;;;;5.13;100.00;97531.38;5013831;28;20196;-86
2021/03/03 01:03:47;;;;;;;6.40;5.27;;;;;;;5.25;100.00;97528.84;5013304;28;20206;-86
2021/03/03 01:06:15;;;;;;;5.27;4.77;;;;;;;5.13;100.00;97524.38;5013670;28;20587;-87
2021/03/03 01:08:43;;;;;;;4.97;4.33;;;;;;;5.23;100.00;97519.47;5013460;28;20274;-86
2021/03/03 01:11:10;;;;;;;6.10;4.67;;;;;;;5.32;100.00;97523.25;5013282;28;20195;-87
2021/03/03 01:13:37;;;;;;;5.50;4.90;;;;;;;5.50;100.00;97516.88;5013359;28;20195;-86
2021/03/03 01:16:04;;;;;;;5.57;5.03;;;;;;;5.46;100.00;97510.19;5013185;28;20292;-86
2021/03/03 01:18:31;;;;;;;9.17;7.37;;;;;;;5.39;100.00;97509.72;5013086;28;20555;-86
2021/03/03 01:20:58;;;;;;;6.57;5.87;;;;;;;5.44;100.00;97510.28;5013342;28;20298;-86
2021/03/03 01:23:26;;;;;;;6.50;5.03;;;;;;;5.38;100.00;97505.47;5013114;28;20282;-86
2021/03/03 01:25:53;;;;;;;6.53;4.73;;;;;;;5.45;100.00;97509.34;5013004;28;20191;-85
2021/03/03 01:28:19;;;;;;;6.37;5.10;;;;;;;5.48;100.00;97503.94;5012659;28;20210;-86
2021/03/03 01:30:46;;;;;;;5.80;5.20;;;;;;;5.42;100.00;97499.09;5012983;28;20196;-86
2021/03/03 01:33:24;;;;;;;7.90;5.93;;;;;;;5.37;100.00;97505.53;5013003;28;20207;-86
2021/03/03 01:35:51;;;;;;;7.67;5.33;;;;;;;5.37;100.00;97501.19;5012897;28;20261;-86
2021/03/03 01:38:17;;;;;;;6.03;5.17;;;;;;;5.39;100.00;97501.06;5012766;28;20279;-86
2021/03/03 01:40:45;;;;;;;7.97;5.40;;;;;;;5.35;100.00;97499.59;5012731;28;20239;-86
2021/03/03 01:43:12;;;;;;;8.90;4.97;;;;;;;5.28;100.00;97504.34;5012598;28;20258;-86
2021/03/03 01:45:40;;;;;;;5.70;5.07;;;;;;;5.41;100.00;97494.84;5012553;28;20253;-85
2021/03/03 01:48:08;;;;;;;7.03;5.10;;;;;;;5.41;100.00;97501.81;5012189;28;20279;-86
2021/03/03 01:50:35;;;;;;;5.83;5.10;;;;;;;5.51;100.00;97502.06;5012896;28;20203;-86
2021/03/03 01:53:02;;;;;;;5.63;4.57;;;;;;;5.49;100.00;97500.41;5012617;28;20664;-86
2021/03/03 01:55:29;;;;;;;8.93;5.67;;;;;;;5.47;100.00;97496.19;5012409;28;20264;-85
2021/03/03 01:57:57;;;;;;;7.10;5.50;;;;;;;5.47;100.00;97497.06;5012319;28;20195;-85
2021/03/03 02:00:24;;;;;;;6.27;5.00;;;;;;;5.40;100.00;97495.78;5012490;28;20242;-86
2021/03/03 02:02:51;;;;;;;6.00;5.40;;;;;;;5.49;100.00;97505.59;5012435;28;20672;-85
2021/03/03 02:05:18;;;;;;;7.63;5.87;;;;;;;5.39;100.00;97498.47;5012357;28;20202;-86
2021/03/03 02:07:52;;;;;;;8.77;5.43;;;;;;;5.41;100.00;97499.22;5012442;28;20196;-85
2021/03/03 02:10:27;;;;;;;7.33;5.13;;;;;;;5.40;100.00;97503.59;5012556;28;20735;-86
2021/03/03 02:13:02;;;;;;;6.17;4.97;;;;;;;5.30;100.00;97504.25;5012619;28;20282;-86
2021/03/03 02:15:33;;;;;;;6.83;5.53;;;;;;;5.44;100.00;97512.91;5012606;28;20211;-86
2021/03/03 02:18:02;;;;;;;5.90;5.03;;;;;;;5.45;100.00;97509.34;5012345;28;20195;-87
2021/03/03 02:20:33;;;;;;;8.00;6.23;;;;;;;5.41;100.00;97502.66;5012147;28;20766;-87
2021/03/03 02:23:12;;;;;;;7.37;5.10;;;;;;;5.41;100.00;97502.66;5012485;28;20188;-87
2021/03/03 02:25:41;;;;;;;5.67;5.07;;;;;;;5.41;100.00;97501.81;5012358;28;20195;-86
2021/03/03 02:28:10;;;;;;;5.60;5.00;;;;;;;5.44;100.00;97507.69;5012035;28;20290;-85
2021/03/03 02:30:39;;;;;;;6.57;5.20;;;;;;;5.51;100.00;97510.75;5012141;28;20760;-86
2021/03/03 02:33:07;;;;;;;6.37;5.13;;;;;;;5.51;100.00;97512.50;5012083;28;20210;-86
2021/03/03 02:35:35;;;;;;;10.77;5.03;;;;;;;5.47;100.00;97502.28;5012184;28;20290;-86
2021/03/03 02:38:05;;;;;;;9.13;4.90;;;;;;;5.53;100.00;97511.47;5012532;28;20700;-85
2021/03/03 02:40:32;;;;;;;6.17;5.10;;;;;;;5.51;100.00;97507.28;5012120;28;20202;-86
2021/03/03 02:43:02;;;;;;;5.80;5.23;;;;;;;5.51;100.00;97507.28;5012095;28;20203;-86
2021/03/03 02:45:29;;;;;;;5.33;4.83;;;;;;;5.49;100.00;97508.22;5011954;28;20284;-85
2021/03/03 02:47:58;;;;;;;7.40;5.97;;;;;;;5.55;100.00;97509.63;5012101;28;20195;-86
2021/03/03 02:50:25;;;;;;;7.00;4.53;;;;;;;5.60;100.00;97510.16;5011905;28;20630;-86
2021/03/03 02:52:53;;;;;;;7.27;5.00;;;;;;;5.46;100.00;97511.00;5011926;28;20246;-86
2021/03/03 02:55:22;;;;;;;5.57;4.67;;;;;;;5.44;100.00;97512.91;5012074;28;20227;-87
2021/03/03 02:57:49;;;;;;;6.30;4.97;;;;;;;5.38;100.00;97508.06;5012187;28;20223;-86
2021/03/03 03:00:20;;;;;;;7.03;4.60;;;;;;;5.45;100.00;97513.72;5012070;28;20203;-86
2021/03/03 03:02:50;;;;;;;8.50;4.90;;;;;;;5.43;100.00;97516.41;5011908;28;20195;-86
2021/03/03 03:05:19;;;;;;;5.23;4.70;;;;;;;5.61;100.00;97510.97;5012047;28;20274;-86
2021/03/03 03:07:49;;;;;;;5.63;4.37;;;;;;;5.48;100.00;97514.38;5011818;28;20200;-86
2021/03/03 03:10:18;;;;;;;9.67;4.63;;;;;;;5.41;100.00;97518.31;5011908;28;20283;-86
2021/03/03 03:12:49;;;;;;;5.20;4.50;;;;;;;5.39;100.00;97508.91;5011638;28;20294;-86
2021/03/03 03:15:20;;;;;;;5.37;4.87;;;;;;;5.40;100.00;97514.03;5012137;28;20557;-86
2021/03/03 03:17:51;;;;;;;5.77;4.57;;;;;;;5.22;100.00;97502.94;5011545;28;20667;-86
2021/03/03 03:20:18;;;;;;;8.07;5.83;;;;;;;5.22;100.00;97512.53;5011706;28;20187;-85
2021/03/03 03:22:47;;;;;;;6.20;4.90;;;;;;;5.25;100.00;97522.78;5011585;28;20203;-86
2021/03/03 03:25:15;;;;;;;6.53;5.03;;;;;;;5.13;100.00;97518.34;5011705;28;20195;-85
2021/03/03 03:27:43;;;;;;;9.53;7.20;;;;;;;4.96;100.00;97529.78;5011555;28;20195;-86
2021/03/03 03:30:12;;;;;;;7.93;5.80;;;;;;;4.92;100.00;97536.97;5011945;28;20196;-86
2021/03/03 03:32:42;;;;;;;5.53;4.93;;;;;;;4.91;100.00;97530.03;5015455;28;20203;-86
2021/03/03 03:35:10;;;;;;;5.97;4.83;;;;;;;4.82;100.00;97546.25;5015022;28;20699;-86
2021/03/03 03:37:39;;;;;;;19.87;13.87;;;;;;;4.82;100.00;97554.06;5014762;28;20661;-85
2021/03/03 03:40:08;;;;;;;91.33;53.63;;;;;;;4.56;100.00;97552.16;5015243;28;20200;-86
2021/03/03 03:42:36;;;;;;;31.67;21.50;;;;;;;4.71;100.00;97559.06;5014822;28;20199;-86
2021/03/03 03:45:05;;;;;;;6.33;5.27;;;;;;;5.36;100.00;97567.28;5014999;28;20673;-86
2021/03/03 03:47:32;;;;;;;5.70;4.87;;;;;;;5.33;100.00;97572.66;5014320;28;20231;-86
2021/03/03 03:50:04;;;;;;;14.40;8.73;;;;;;;5.28;100.00;97585.16;5014762;28;20687;-86
2021/03/03 03:52:31;;;;;;;15.93;10.50;;;;;;;5.04;100.00;97577.06;5014647;28;20194;-86
2021/03/03 03:54:58;;;;;;;6.97;5.43;;;;;;;4.95;100.00;97577.59;5014949;28;20599;-86
2021/03/03 03:57:25;;;;;;;7.67;5.27;;;;;;;4.77;100.00;97571.72;5014283;28;20204;-86
2021/03/03 03:59:51;;;;;;;5.50;4.97;;;;;;;4.65;100.00;97567.25;5014985;28;20234;-86
2021/03/03 04:02:18;;;;;;;7.13;5.10;;;;;;;4.48;100.00;97569.06;5014341;28;20218;-86
2021/03/03 04:04:45;;;;;;;5.60;5.00;;;;;;;4.24;100.00;97568.72;5014478;28;20195;-85
2021/03/03 04:07:13;;;;;;;5.60;4.27;;;;;;;4.22;100.00;97562.75;5014717;28;20603;-86
2021/03/03 04:09:40;;;;;;;5.00;3.93;;;;;;;4.13;100.00;97565.06;5014226;28;20199;-86
2021/03/03 04:12:08;;;;;;;6.27;4.97;;;;;;;4.10;100.00;97568.66;5013947;28;20237;-86
2021/03/03 04:14:35;;;;;;;6.20;5.30;;;;;;;4.12;100.00;97568.56;5014354;28;20204;-86
2021/03/03 04:17:01;;;;;;;6.47;4.53;;;;;;;4.15;100.00;97565.78;5013805;28;20227;-86
2021/03/03 04:19:28;;;;;;;5.70;4.70;;;;;;;4.06;100.00;97567.16;5014186;28;20199;-86
2021/03/03 04:21:55;;;;;;;8.23;5.70;;;;;;;4.05;100.00;97561.13;5014022;28;20291;-86
2021/03/03 04:24:23;;;;;;;8.20;5.00;;;;;;;4.17;100.00;97569.97;5014220;28;20210;-86
2021/03/03 04:26:50;;;;;;;10.40;6.77;;;;;;;4.12;100.00;97568.56;5013941;28;20706;-86
2021/03/03 04:29:17;;;;;;;20.60;17.17;;;;;;;3.82;100.00;97569.38;5013837;28;20210;-85
2021/03/03 04:31:44;;;;;;;20.70;16.03;;;;;;;3.75;100.00;97568.03;5014094;28;20204;-86
2021/03/03 04:34:11;;;;;;;10.03;8.77;;;;;;;3.76;100.00;97572.28;5013888;28;20200;-85
2021/03/03 04:36:38;;;;;;;16.03;10.50;;;;;;;3.63;100.00;97564.31;5013882;28;20230;-85
2021/03/03 04:39:05;;;;;;;21.07;13.93;;;;;;;3.69;100.00;97573.56;5014029;28;20258;-86
2021/03/03 04:41:33;;;;;;;18.40;12.10;;;;;;;3.73;100.00;97575.06;5013477;28;20207;-85
2021/03/03 04:44:00;;;;;;;10.97;7.27;;;;;;;3.55;100.00;97569.94;5013551;28;20195;-85
2021/03/03 04:46:27;;;;;;;9.57;6.37;;;;;;;3.53;100.00;97571.81;5013625;28;20318;-85
2021/03/03 04:48:53;;;;;;;18.87;12.20;;;;;;;3.40;100.00;97569.94;5013596;28;20290;-85
2021/03/03 04:51:20;;;;;;;24.63;15.33;;;;;;;3.22;100.00;97574.34;5013517;28;20257;-86
2021/03/03 04:53:47;;;;;;;9.30;6.83;;;;;;;3.29;100.00;97571.38;5013286;28;20695;-85
2021/03/03 04:56:14;;;;;;;18.27;10.43;;;;;;;3.21;100.00;97570.06;5014033;28;20615;-85
2021/03/03 04:58:41;;;;;;;126.10;70.20;;;;;;;3.04;100.00;97563.16;5013715;28;20718;-85
2021/03/03 05:01:08;;;;;;;108.83;59.80;;;;;;;2.94;100.00;97568.00;5013236;28;20222;-85
2021/03/03 05:03:35;;;;;;;99.93;51.97;;;;;;;2.97;100.00;97560.03;5013260;28;20195;-85
2021/03/03 05:06:02;;;;;;;71.40;43.63;;;;;;;3.07;100.00;97570.81;5013499;28;20195;-85
2021/03/03 05:08:29;;;;;;;25.50;17.83;;;;;;;3.10;100.00;97561.09;5013398;28;20200;-85
2021/03/03 05:10:55;;;;;;;44.17;37.13;;;;;;;3.18;100.00;97573.66;5012932;28;20223;-85
2021/03/03 05:13:22;;;;;;;54.30;42.17;;;;;;;3.28;100.00;97574.84;5012930;28;20756;-85
2021/03/03 05:15:50;;;;;;;24.73;17.43;;;;;;;3.22;100.00;97575.22;5012781;28;20314;-85
2021/03/03 05:18:17;;;;;;;27.23;18.27;;;;;;;3.31;100.00;97579.91;5013034;28;20660;-84
2021/03/03 05:20:43;;;;;;;27.90;17.60;;;;;;;3.29;100.00;97575.69;5013195;28;20616;-85
2021/03/03 05:23:10;;;;;;;19.03;11.73;;;;;;;3.31;100.00;97573.88;5012638;28;20203;-86
2021/03/03 05:25:37;;;;;;;14.10;8.87;;;;;;;3.83;100.00;97580.59;5012898;28;20202;-87
2021/03/03 05:28:05;;;;;;;10.23;8.77;;;;;;;4.19;100.00;97583.75;5010300;28;20295;-83
2021/03/03 05:30:31;;;;;;;11.13;7.57;;;;;;;4.44;100.00;97593.59;5012492;28;20214;-83
2021/03/03 05:32:59;;;;;;;7.73;5.10;;;;;;;4.89;100.00;97599.66;5011853;28;20204;-82
2021/03/03 05:35:26;;;;;;;8.33;6.20;;;;;;;5.11;100.00;97603.59;5012397;28;20223;-83
2021/03/03 05:37:53;;;;;;;13.63;9.67;;;;;;;5.17;100.00;97608.44;5012759;28;20207;-83
2021/03/03 05:40:20;;;;;;;17.53;12.37;;;;;;;5.18;100.00;97617.94;5012519;28;20354;-83
2021/03/03 05:42:47;;;;;;;13.20;9.50;;;;;;;4.80;100.00;97612.38;5011928;28;20207;-82
2021/03/03 05:45:18;;;;;;;14.90;9.33;;;;;;;4.80;100.00;97617.59;5012683;28;20680;-82
2021/03/03 05:47:48;;;;;;;10.10;7.57;;;;;;;5.11;100.00;97621.84;5011818;28;20745;-84
2021/03/03 05:50:17;;;;;;;10.40;8.00;;;;;;;5.04;100.00;97628.34;5011290;28;20286;-84
2021/03/03 05:52:44;;;;;;;18.80;15.40;;;;;;;4.95;100.00;97632.31;5011209;28;20203;-83
2021/03/03 05:55:12;;;;;;;12.17;9.63;;;;;;;4.83;100.00;97633.88;5012091;28;20230;-85
2021/03/03 05:57:40;;;;;;;13.20;9.40;;;;;;;4.75;100.00;97628.28;5012332;28;20269;-83
2021/03/03 06:00:08;;;;;;;10.30;7.67;;;;;;;4.82;100.00;97628.78;5012111;28;20210;-85
2021/03/03 06:02:37;;;;;;;11.80;9.83;;;;;;;5.01;100.00;97635.41;5012503;28;20203;-83
2021/03/03 06:05:05;;;;;;;11.53;9.27;;;;;;;5.00;100.00;97628.50;5011714;28;20203;-84
2021/03/03 06:07:35;;;;;;;11.03;8.50;;;;;;;5.16;100.00;97638.88;5012450;28;20199;-88
2021/03/03 06:10:01;;;;;;;9.93;8.47;;;;;;;5.20;100.00;97634.31;5012826;28;20247;-86
2021/03/03 06:12:28;;;;;;;10.93;8.00;;;;;;;5.29;100.00;97632.91;5012157;28;20691;-88
2021/03/03 06:14:55;;;;;;;14.17;9.23;;;;;;;5.35;100.00;97630.78;5012918;28;20215;-88
2021/03/03 06:20:10;;;;;;;11.70;9.30;;;;;;;5.65;100.00;97650.72;5011374;28;20203;-88
2021/03/03 06:22:39;;;;;;;17.00;11.70;;;;;;;5.83;100.00;97646.13;5012519;28;20254;-88
2021/03/03 06:25:18;;;;;;;37.43;22.43;;;;;;;5.95;100.00;97653.22;5012455;28;20191;-87
2021/03/03 06:27:45;;;;;;;35.17;24.03;;;;;;;6.12;100.00;97652.16;5011656;28;20195;-88
2021/03/03 06:30:15;;;;;;;35.57;22.27;;;;;;;6.27;100.00;97655.56;5012725;28;20618;-88
2021/03/03 06:32:53;;;;;;;31.70;22.43;;;;;;;6.37;100.00;97644.44;5012091;28;20217;-87
2021/03/03 06:35:20;;;;;;;25.50;17.77;;;;;;;6.42;100.00;97660.66;5010931;28;20238;-88
2021/03/03 06:37:56;;;;;;;38.87;22.67;;;;;;;6.50;100.00;97654.09;5012722;28;20214;-88
2021/03/03 06:40:23;;;;;;;70.07;40.27;;;;;;;6.73;100.00;97657.84;5012614;28;20230;-86
2021/03/03 06:42:50;;;;;;;40.93;28.30;;;;;;;6.82;100.00;97673.75;5012529;28;20227;-86
2021/03/03 06:45:27;;;;;;;21.00;14.33;;;;;;;6.98;100.00;97670.94;5012510;28;20220;-87
2021/03/03 06:47:55;;;;;;;27.10;17.93;;;;;;;7.15;100.00;97680.28;5012183;28;20238;-87
2021/03/03 06:50:31;;;;;;;17.73;14.10;;;;;;;7.39;100.00;97678.63;5012660;28;20199;-87
2021/03/03 06:52:59;;;;;;;29.90;21.10;;;;;;;7.62;100.00;97676.22;5011941;28;20201;-86
2021/03/03 06:55:42;;;;;;;8.10;6.80;;;;;;;7.77;100.00;97688.25;5012196;28;20202;-87
2021/03/03 06:58:24;;;;;;;7.83;6.97;;;;;;;7.89;100.00;97688.31;5012057;28;20732;-86
2021/03/03 07:00:52;;;;;;;6.43;5.00;;;;;;;7.95;100.00;97690.53;5012603;28;20180;-87
2021/03/03 07:03:30;;;;;;;6.80;6.10;;;;;;;8.09;100.00;97691.22;5012088;28;20200;-88
2021/03/03 07:05:57;;;;;;;6.97;6.33;;;;;;;8.38;100.00;97690.13;5015332;28;20180;-87
2021/03/03 07:08:25;;;;;;;10.13;7.17;;;;;;;8.56;100.00;97688.81;5015731;28;20242;-87
2021/03/03 07:10:51;;;;;;;7.83;6.00;;;;;;;8.87;100.00;97687.41;5015975;28;20203;-87
2021/03/03 07:13:35;;;;;;;7.50;6.73;;;;;;;9.35;100.00;97694.31;5015807;28;20586;-87
2021/03/03 07:16:07;;;;;;;10.87;6.63;;;;;;;9.47;100.00;97689.00;4998318;28;20289;-87
2021/03/03 07:18:36;;;;;;;7.50;6.33;;;;;;;9.80;100.00;97681.25;5015920;28;20215;-89
2021/03/03 07:21:05;;;;;;;7.77;5.33;;;;;;;10.01;100.00;97684.88;5015664;28;20199;-87
2021/03/03 07:23:48;;;;;;;7.20;5.40;;;;;;;10.14;100.00;97690.78;5015594;28;20672;-87
2021/03/03 07:26:16;;;;;;;11.43;5.33;;;;;;;10.49;100.00;97689.81;5015517;28;20195;-86
2021/03/03 07:28:43;;;;;;;6.47;5.13;;;;;;;10.68;100.00;97689.19;5013157;28;20262;-88
2021/03/03 07:31:12;;;;;;;10.73;5.73;;;;;;;10.85;100.00;97679.91;5014811;28;20229;-86
2021/03/03 07:33:39;;;;;;;6.07;4.50;;;;;;;11.08;100.00;97681.47;5013893;28;20215;-85
2021/03/03 07:36:08;;;;;;;4.57;4.17;;;;;;;11.27;100.00;97685.22;5015302;28;20227;-90
2021/03/03 07:38:37;;;;;;;7.33;5.57;;;;;;;11.31;100.00;97684.00;5016533;28;20723;-89
2021/03/03 07:41:07;;;;;;;7.23;5.20;;;;;;;11.48;100.00;97677.31;5015931;28;20712;-90
2021/03/03 07:43:35;;;;;;;9.17;5.70;;;;;;;11.54;100.00;97677.63;5015813;28;20203;-89
2021/03/03 07:46:06;;;;;;;7.90;5.77;;;;;;;11.17;100.00;97682.50;5015008;28;20719;-86
2021/03/03 07:48:34;;;;;;;9.73;5.80;;;;;;;11.23;100.00;97679.38;5015015;28;20703;-88
2021/03/03 07:51:02;;;;;;;7.60;5.40;;;;;;;11.42;100.00;97683.91;5015239;28;20257;-88
2021/03/03 07:53:31;;;;;;;7.10;5.20;;;;;;;11.10;100.00;97679.56;5014966;28;21153;-87
2021/03/03 07:55:59;;;;;;;9.33;6.23;;;;;;;11.30;100.00;97680.53;5015301;28;20301;-87
2021/03/03 07:58:29;;;;;;;6.37;5.77;;;;;;;11.73;100.00;97681.31;5014684;28;20253;-87
2021/03/03 08:00:56;;;;;;;6.73;5.63;;;;;;;11.59;100.00;97688.59;5015123;28;20286;-87
2021/03/03 08:03:45;;;;;;;7.60;6.70;;;;;;;11.95;100.00;97681.19;5014952;28;20684;-87
2021/03/03 08:06:36;;;;;;;8.90;7.20;;;;;;;12.27;100.00;97683.66;5014826;28;20188;-87
2021/03/03 08:09:10;;;;;;;25.50;15.17;;;;;;;12.36;100.00;97679.38;5014781;28;20195;-87
2021/03/03 08:11:38;;;;;;;10.87;8.10;;;;;;;12.59;100.00;97678.16;5019001;28;20194;-87
2021/03/03 08:14:37;;;;;;;7.00;6.00;;;;;;;12.47;100.00;97683.69;5014906;28;20291;-88
2021/03/03 08:17:09;;;;;;;7.93;5.60;;;;;;;12.78;100.00;97689.69;5013773;28;20239;-87
2021/03/03 08:19:56;;;;;;;10.60;8.07;;;;;;;12.77;100.00;97693.31;5014822;28;20653;-89
2021/03/03 08:22:53;;;;;;;11.23;8.70;;;;;;;12.78;100.00;97692.34;5014475;28;20192;-87
2021/03/03 08:25:48;;;;;;;8.57;6.90;;;;;;;12.69;100.00;97693.19;4998406;28;20669;-89
2021/03/03 08:28:29;;;;;;;6.90;5.83;;;;;;;12.79;100.00;97688.75;4989654;28;20235;-88
2021/03/03 08:31:32;;;;;;;8.57;5.93;;;;;;;13.11;100.00;97695.56;4997957;28;20250;-89
2021/03/03 08:34:07;;;;;;;7.80;6.27;;;;;;;13.02;100.00;97692.81;4995521;28;20200;-88
2021/03/03 08:37:01;;;;;;;7.63;6.80;;;;;;;12.92;100.00;97701.66;5000587;28;20580;-87
2021/03/03 08:39:32;;;;;;;9.63;6.47;;;;;;;13.21;100.00;97691.94;5014472;28;20194;-88
2021/03/03 08:41:59;;;;;;;6.40;5.80;;;;;;;12.70;100.00;97700.94;5015216;28;20271;-88
2021/03/03 08:44:26;;;;;;;8.07;5.83;;;;;;;12.77;100.00;97696.78;5014367;28;20266;-88
2021/03/03 08:46:53;;;;;;;10.03;6.67;;;;;;;12.56;100.00;97698.72;5014270;28;20240;-89
2021/03/03 08:49:32;;;;;;;7.67;6.60;;;;;;;12.88;100.00;97690.53;5014350;28;20677;-87
2021/03/03 08:52:11;;;;;;;7.70;6.67;;;;;;;13.07;100.00;97690.56;5014137;28;20277;-88
2021/03/03 08:54:43;;;;;;;10.27;7.67;;;;;;;13.30;100.00;97695.56;5014030;28;20193;-87
2021/03/03 08:57:32;;;;;;;7.20;6.50;;;;;;;13.44;100.00;97695.16;5013734;28;20211;-88
2021/03/03 09:00:00;;;;;;;6.33;5.53;;;;;;;13.60;100.00;97693.72;5014041;28;20199;-88
2021/03/03 09:02:41;;;;;;;6.23;5.43;;;;;;;12.99;100.00;97692.22;5014156;28;20199;-87
2021/03/03 09:05:15;;;;;;;13.63;7.03;;;;;;;13.28;100.00;97698.34;5013796;28;20190;-86
2021/03/03 09:07:42;;;;;;;6.37;5.50;;;;;;;13.08;100.00;97694.84;5013655;28;20213;-87
2021/03/03 09:10:15;;;;;;;6.50;5.67;;;;;;;12.98;100.00;97691.38;5013616;28;20209;-87
2021/03/03 09:12:44;;;;;;;7.23;6.07;;;;;;;12.61;100.00;97699.97;5013480;28;20195;-87
2021/03/03 09:15:12;;;;;;;8.83;6.10;;;;;;;12.73;100.00;97695.41;5013487;28;20199;-87
2021/03/03 09:17:39;;;;;;;8.63;5.70;;;;;;;13.25;100.00;97698.63;5013325;28;20226;-87
2021/03/03 09:20:09;;;;;;;10.60;6.70;;;;;;;13.53;100.00;97699.56;4998301;28;20653;-87
2021/03/03 09:22:38;;;;;;;8.97;6.87;;;;;;;14.31;100.00;97691.38;5002189;28;20194;-87
2021/03/03 09:25:12;;;;;;;9.70;6.30;;;;;;;14.20;100.00;97688.91;5010479;28;20204;-87
2021/03/03 09:27:40;;;;;;;8.20;6.30;;;;;;;13.85;100.00;97693.09;5001561;28;20286;-86
2021/03/03 09:30:09;;;;;;;17.10;13.87;;;;;;;13.01;100.00;97695.56;4993020;28;20235;-86
2021/03/03 09:32:36;;;;;;;8.10;6.83;;;;;;;13.37;100.00;97696.69;4993648;28;20207;-87
2021/03/03 09:35:05;;;;;;;7.57;6.47;;;;;;;13.36;100.00;97696.81;4993843;28;20275;-87
2021/03/03 09:37:39;;;;;;;7.17;5.93;;;;;;;13.52;100.00;97700.56;4993302;28;20278;-87
2021/03/03 09:40:09;;;;;;;6.60;5.50;;;;;;;13.51;100.00;97698.91;4993571;28;20189;-87
2021/03/03 09:42:41;;;;;;;10.47;7.27;;;;;;;13.93;100.00;97698.50;4993633;28;20363;-87
2021/03/03 09:45:09;;;;;;;10.63;9.03;;;;;;;14.38;100.00;97700.41;4993306;28;20203;-87
2021/03/03 09:47:38;;;;;;;10.77;9.53;;;;;;;14.13;100.00;97701.91;4993225;28;20618;-87
2021/03/03 09:50:08;;;;;;;9.60;8.70;;;;;;;14.43;100.00;97700.78;4993241;28;20561;-87
2021/03/03 09:52:38;;;;;;;14.37;12.80;;;;;;;14.17;100.00;97700.63;4993400;28;20197;-87
2021/03/03 09:55:08;;;;;;;13.63;11.93;;;;;;;14.79;100.00;97700.03;4993225;28;20235;-87
2021/03/03 09:57:35;;;;;;;8.43;6.20;;;;;;;14.57;100.00;97696.00;4992791;28;20228;-87
2021/03/03 10:00:03;;;;;;;24.17;17.77;;;;;;;14.17;100.00;97698.00;4993338;28;20264;-87
2021/03/03 10:02:30;;;;;;;19.50;17.40;;;;;;;14.16;100.00;97700.75;4993197;28;20200;-87
2021/03/03 10:04:59;;;;;;;15.03;10.33;;;;;;;13.82;100.00;97698.69;4993143;28;20634;-87
2021/03/03 10:07:27;;;;;;;19.77;14.00;;;;;;;13.87;100.00;97696.44;4993092;28;20199;-87
2021/03/03 10:09:56;;;;;;;11.07;8.97;;;;;;;14.26;100.00;97698.91;4993042;28;20290;-87
2021/03/03 10:12:25;;;;;;;24.53;20.67;;;;;;;14.63;100.00;97692.75;4993131;28;20200;-86
2021/03/03 10:14:57;;;;;;;10.57;9.27;;;;;;;14.42;100.00;97693.81;4993255;28;20204;-87
2021/03/03 10:17:32;;;;;;;8.57;7.77;;;;;;;14.46;100.00;97692.53;4992781;28;20324;-87
2021/03/03 10:19:59;;;;;;;10.47;6.70;;;;;;;14.40;100.00;97695.78;4992829;28;20668;-87
2021/03/03 10:22:27;;;;;;;13.37;9.43;;;;;;;14.83;100.00;97691.66;4992797;28;20243;-86
2021/03/03 10:25:02;;;;;;;10.23;7.53;;;;;;;15.49;100.00;97673.66;4992843;28;20201;-87
2021/03/03 10:27:36;;;;;;;11.50;7.93;;;;;;;15.37;100.00;97673.91;4993214;28;20610;-87
2021/03/03 10:30:21;;;;;;;8.53;6.77;;;;;;;15.39;100.00;97676.41;4992904;28;20188;-86
2021/03/03 10:32:48;;;;;;;8.73;6.57;;;;;;;15.48;100.00;97674.63;4992756;28;20184;-87
2021/03/03 10:35:15;;;;;;;7.80;6.73;;;;;;;15.23;100.00;97674.44;4993133;28;20661;-87
2021/03/03 10:37:42;;;;;;;8.03;7.23;;;;;;;15.17;100.00;97664.47;4992670;28;20230;-87
2021/03/03 10:40:14;;;;;;;7.77;6.60;;;;;;;15.58;100.00;97665.59;4994915;28;20269;-87
2021/03/03 10:42:41;;;;;;;7.87;7.10;;;;;;;15.83;100.00;97658.66;4996397;28;20594;-87
2021/03/03 10:45:19;;;;;;;8.57;7.37;;;;;;;15.82;100.00;97653.50;4996975;28;20254;-87
2021/03/03 10:47:48;;;;;;;8.07;7.13;;;;;;;14.79;100.00;97658.53;5010327;28;20230;-86
2021/03/03 10:50:16;;;;;;;10.60;6.90;;;;;;;14.79;100.00;97649.72;5016058;28;20206;-86
2021/03/03 10:52:57;;;;;;;8.87;7.03;;;;;;;15.39;100.00;97648.09;5015324;28;20554;-84
2021/03/03 10:55:27;;;;;;;11.23;7.33;;;;;;;15.33;100.00;97645.22;5016471;28;20207;-89
2021/03/03 10:58:01;;;;;;;7.63;6.27;;;;;;;15.10;100.00;97639.56;5014960;28;20775;-79
2021/03/03 11:00:28;;;;;;;8.80;7.23;;;;;;;15.12;100.00;97637.63;5015211;28;20201;-80
2021/03/03 11:03:02;;;;;;;11.13;6.57;;;;;;;15.91;100.00;97621.59;5015456;28;20218;-80
2021/03/03 11:05:32;;;;;;;9.20;7.10;;;;;;;15.72;100.00;97627.09;5015541;28;20206;-81
2021/03/03 11:07:59;;;;;;;7.23;6.13;;;;;;;16.10;100.00;97624.97;5015204;28;20581;-79
2021/03/03 11:10:26;;;;;;;7.63;6.00;;;;;;;16.72;100.00;97617.50;5013372;28;20664;-80
2021/03/03 11:12:53;;;;;;;9.93;6.40;;;;;;;16.94;100.00;97612.56;5013694;28;20204;-78
2021/03/03 11:15:20;;;;;;;9.37;7.50;;;;;;;17.11;100.00;97622.19;5014932;28;20203;-78
2021/03/03 11:17:47;;;;;;;9.80;6.53;;;;;;;16.09;100.00;97618.00;5014957;28;20249;-78
2021/03/03 11:20:14;;;;;;;11.67;7.13;;;;;;;15.86;100.00;97610.63;5014989;28;20202;-77
2021/03/03 11:22:40;;;;;;;11.80;6.63;;;;;;;16.52;100.00;97610.81;5015040;28;20195;-78
2021/03/03 11:25:08;;;;;;;9.93;6.73;;;;;;;16.60;100.00;97600.25;5015075;28;20601;-77
2021/03/03 11:27:36;;;;;;;9.20;5.93;;;;;;;16.32;100.00;97603.16;5014432;28;20195;-77
2021/03/03 11:30:03;;;;;;;10.80;6.93;;;;;;;17.05;100.00;97597.13;5005499;28;20680;-81
2021/03/03 11:32:29;;;;;;;7.70;6.43;;;;;;;17.41;100.00;97590.59;4995219;28;20201;-81
2021/03/03 11:34:56;;;;;;;9.33;7.43;;;;;;;16.73;100.00;97587.31;4995533;28;20585;-81
2021/03/03 11:37:23;;;;;;;7.50;6.47;;;;;;;16.06;100.00;97589.97;4994842;28;20245;-81
2021/03/03 11:39:51;;;;;;;9.23;7.73;;;;;;;16.85;100.00;97586.00;4995009;28;20674;-80